createdAt,value
2022-11-26T00:00:45.412Z,12.37
2022-11-26T00:03:14.659Z,13.15
2022-11-26T00:05:45.485Z,10.90
2022-11-26T00:08:23.278Z,11.35
2022-11-26T00:10:52.875Z,12.55
2022-11-26T00:13:23.436Z,14.48
2022-11-26T00:15:53.864Z,12.73
2022-11-26T00:18:23.495Z,13.77
2022-11-26T00:20:54.624Z,13.35
2022-11-26T00:23:25.607Z,12.13
2022-11-26T00:25:56.192Z,9.75
2022-11-26T00:28:31.542Z,10.18
2022-11-26T00:31:02.945Z,11.60
2022-11-26T00:33:31.565Z,9.18
2022-11-26T00:36:03.507Z,11.32
2022-11-26T00:38:32.468Z,14.25
2022-11-26T00:41:00.472Z,14.15
2022-11-26T00:43:28.403Z,12.32
2022-11-26T00:45:56.507Z,10.95
2022-11-26T00:48:25.872Z,13.27
2022-11-26T00:50:53.906Z,9.70
2022-11-26T00:53:23.744Z,11.02
2022-11-26T00:55:52.041Z,10.93
2022-11-26T00:58:26.116Z,11.02
2022-11-26T01:00:54.945Z,12.30
2022-11-26T01:03:23.275Z,12.15
2022-11-26T01:05:55.511Z,10.75
2022-11-26T01:08:29.919Z,10.25
2022-11-26T01:10:58.024Z,11.00
2022-11-26T01:13:26.462Z,11.57
2022-11-26T01:15:56.100Z,11.65
2022-11-26T01:18:24.859Z,11.98
2022-11-26T01:20:54.193Z,8.57
2022-11-26T01:23:22.210Z,9.48
2022-11-26T01:25:50.188Z,14.00
2022-11-26T01:28:19.844Z,14.32
2022-11-26T01:30:48.224Z,15.20
2022-11-26T01:33:16.119Z,10.52
2022-11-26T01:35:44.041Z,10.10
2022-11-26T01:38:15.150Z,10.07
2022-11-26T01:40:55.628Z,9.63
2022-11-26T01:43:28.217Z,9.60
2022-11-26T01:45:57.152Z,11.65
2022-11-26T01:48:29.120Z,10.43
2022-11-26T01:51:03.739Z,13.18
2022-11-26T01:53:55.919Z,10.13
2022-11-26T01:56:31.823Z,11.80
2022-11-26T01:59:04.715Z,12.10
2022-11-26T02:01:34.018Z,11.27
2022-11-26T02:04:08.048Z,10.80
2022-11-26T02:06:36.708Z,11.20
2022-11-26T02:09:08.256Z,10.82
2022-11-26T02:11:36.667Z,11.20
2022-11-26T02:14:06.185Z,14.68
2022-11-26T02:16:52.300Z,13.48
2022-11-26T02:19:30.971Z,13.43
2022-11-26T02:22:02.815Z,13.23
2022-11-26T02:24:44.280Z,7.47
2022-11-26T02:27:23.499Z,12.27
2022-11-26T02:30:01.070Z,12.65
2022-11-26T02:32:31.743Z,12.20
2022-11-26T02:35:02.035Z,10.02
2022-11-26T02:37:33.045Z,12.32
2022-11-26T02:40:01.377Z,16.83
2022-11-26T02:42:30.754Z,14.40
2022-11-26T02:45:03.313Z,9.77
2022-11-26T02:47:33.679Z,15.50
2022-11-26T02:50:04.424Z,13.15
2022-11-26T02:52:33.891Z,11.98
2022-11-26T02:55:03.405Z,10.38
2022-11-26T02:57:33.830Z,15.43
2022-11-26T03:00:04.864Z,12.77
2022-11-26T03:02:35.701Z,13.63
2022-11-26T03:05:04.300Z,14.88
2022-11-26T03:07:34.293Z,14.15
2022-11-26T03:10:03.526Z,9.75
2022-11-26T03:12:31.826Z,13.93
2022-11-26T03:15:00.049Z,11.73
2022-11-26T03:17:29.639Z,13.60
2022-11-26T03:19:57.938Z,13.68
2022-11-26T03:22:26.183Z,12.23
2022-11-26T03:24:54.512Z,17.20
2022-11-26T03:27:22.740Z,18.42
2022-11-26T03:29:50.980Z,14.88
2022-11-26T03:32:19.216Z,15.80
2022-11-26T03:34:48.862Z,17.77
2022-11-26T03:37:17.116Z,12.63
2022-11-26T03:39:45.393Z,15.80
2022-11-26T03:42:13.797Z,15.82
2022-11-26T03:44:42.012Z,15.32
2022-11-26T03:47:10.324Z,16.73
2022-11-26T03:49:38.591Z,15.65
2022-11-26T03:52:08.260Z,11.20
2022-11-26T03:54:36.705Z,17.00
2022-11-26T03:57:05.187Z,12.20
2022-11-26T03:59:33.496Z,17.50
2022-11-26T04:02:01.731Z,12.57
2022-11-26T04:04:30.027Z,13.38
2022-11-26T04:06:58.381Z,15.38
2022-11-26T04:09:28.024Z,16.33
2022-11-26T04:11:56.319Z,15.52
2022-11-26T04:14:24.581Z,17.38
2022-11-26T04:16:52.865Z,14.65
2022-11-26T04:19:21.151Z,18.70
2022-11-26T04:21:49.429Z,18.02
2022-11-26T04:24:17.689Z,13.10
2022-11-26T04:26:47.239Z,17.02
2022-11-26T04:29:15.630Z,15.27
2022-11-26T04:31:43.957Z,15.15
2022-11-26T04:34:12.268Z,17.73
2022-11-26T04:36:40.502Z,13.63
2022-11-26T04:39:08.753Z,12.90
2022-11-26T04:41:36.976Z,16.60
2022-11-26T04:44:06.775Z,14.90
2022-11-26T04:46:35.064Z,18.10
2022-11-26T04:49:03.334Z,17.88
2022-11-26T04:51:31.639Z,18.98
2022-11-26T04:54:02.939Z,21.48
2022-11-26T04:56:32.084Z,11.80
2022-11-26T04:59:00.403Z,15.43
2022-11-26T05:01:30.081Z,16.48
2022-11-26T05:03:58.407Z,14.93
2022-11-26T05:06:26.714Z,15.50
2022-11-26T05:08:55.066Z,19.63
2022-11-26T05:11:23.363Z,18.67
2022-11-26T05:13:51.575Z,15.93
2022-11-26T05:16:19.955Z,20.63
2022-11-26T05:18:49.523Z,19.02
2022-11-26T05:21:17.813Z,14.40
2022-11-26T05:23:46.102Z,23.90
2022-11-26T05:26:14.421Z,18.85
2022-11-26T05:28:42.679Z,17.35
2022-11-26T05:31:11.924Z,20.58
2022-11-26T05:33:40.319Z,19.90
2022-11-26T05:36:10.344Z,20.25
2022-11-26T05:38:38.651Z,26.33
2022-11-26T05:41:06.865Z,20.80
2022-11-26T05:43:35.100Z,22.95
2022-11-26T05:46:06.192Z,21.73
2022-11-26T05:48:34.900Z,24.55
2022-11-26T05:51:03.571Z,19.67
2022-11-26T05:53:33.199Z,20.88
2022-11-26T05:56:01.412Z,21.05
2022-11-26T05:58:29.744Z,26.70
2022-11-26T06:00:58.047Z,22.77
2022-11-26T06:03:26.390Z,23.63
2022-11-26T06:05:54.819Z,18.95
2022-11-26T06:08:23.165Z,24.73
2022-11-26T06:10:52.772Z,25.08
2022-11-26T06:13:21.041Z,24.90
2022-11-26T06:15:49.402Z,21.58
2022-11-26T06:18:18.120Z,21.90
2022-11-26T06:20:46.749Z,22.33
2022-11-26T06:23:15.037Z,20.45
2022-11-26T06:25:43.832Z,26.88
2022-11-26T06:28:13.476Z,24.60
2022-11-26T06:30:41.745Z,27.67
2022-11-26T06:33:10.023Z,23.60
2022-11-26T06:35:38.329Z,24.40
2022-11-26T06:38:06.540Z,28.33
2022-11-26T06:40:34.780Z,20.48
2022-11-26T06:43:03.144Z,17.15
2022-11-26T06:45:32.751Z,23.63
2022-11-26T06:48:01.116Z,22.65
2022-11-26T06:50:29.437Z,22.43
2022-11-26T06:52:57.712Z,21.80
2022-11-26T06:55:26.010Z,26.05
2022-11-26T06:57:54.274Z,18.30
2022-11-26T07:00:23.045Z,22.83
2022-11-26T07:02:52.724Z,27.17
2022-11-26T07:05:21.056Z,21.85
2022-11-26T07:07:49.367Z,23.63
2022-11-26T07:10:17.847Z,23.83
2022-11-26T07:12:46.112Z,22.67
2022-11-26T07:15:14.362Z,25.40
2022-11-26T07:17:42.721Z,29.35
2022-11-26T07:20:12.944Z,28.88
2022-11-26T07:22:41.178Z,27.70
2022-11-26T07:25:12.793Z,22.58
2022-11-26T07:27:42.004Z,25.52
2022-11-26T07:30:10.949Z,25.87
2022-11-26T07:32:39.310Z,23.43
2022-11-26T07:35:07.982Z,23.35
2022-11-26T07:37:37.701Z,27.00
2022-11-26T07:40:06.511Z,24.17
2022-11-26T07:42:35.177Z,25.42
2022-11-26T07:45:04.578Z,21.92
2022-11-26T07:47:32.855Z,26.08
2022-11-26T07:50:01.299Z,25.52
2022-11-26T07:52:29.605Z,23.42
2022-11-26T07:54:59.192Z,25.83
2022-11-26T07:57:27.600Z,19.13
2022-11-26T07:59:55.870Z,26.05
2022-11-26T08:02:24.109Z,27.63
2022-11-26T08:04:52.387Z,22.40
2022-11-26T08:07:26.119Z,19.33
2022-11-26T08:09:58.785Z,24.00
2022-11-26T08:12:27.254Z,23.70
2022-11-26T08:14:55.782Z,21.30
2022-11-26T08:17:24.091Z,21.27
2022-11-26T08:19:52.367Z,18.30
2022-11-26T08:22:20.655Z,21.98
2022-11-26T08:24:48.907Z,24.30
2022-11-26T08:27:18.571Z,24.05
2022-11-26T08:29:46.790Z,22.80
2022-11-26T08:32:15.184Z,23.83
2022-11-26T08:34:43.448Z,29.90
2022-11-26T08:37:11.675Z,25.20
2022-11-26T08:39:40.075Z,21.27
2022-11-26T08:42:08.342Z,24.25
2022-11-26T08:44:38.259Z,22.92
2022-11-26T08:47:09.820Z,28.88
2022-11-26T08:49:38.178Z,24.58
2022-11-26T08:52:06.689Z,26.17
2022-11-26T08:54:34.967Z,21.42
2022-11-26T08:57:03.287Z,26.55
2022-11-26T08:59:31.559Z,27.15
2022-11-26T09:02:01.186Z,28.77
2022-11-26T09:04:29.422Z,29.42
2022-11-26T09:06:57.665Z,28.52
2022-11-26T09:09:25.959Z,31.67
2022-11-26T09:11:55.095Z,25.50
2022-11-26T09:14:24.987Z,24.10
2022-11-26T09:16:53.388Z,26.40
2022-11-26T09:19:23.074Z,28.35
2022-11-26T09:21:51.373Z,21.42
2022-11-26T09:24:19.820Z,29.33
2022-11-26T09:26:48.944Z,26.13
2022-11-26T09:29:18.883Z,23.70
2022-11-26T09:32:15.874Z,24.00
2022-11-26T09:34:37.253Z,23.30
2022-11-26T09:37:05.758Z,27.37
2022-11-26T09:39:34.042Z,24.13
2022-11-26T09:42:06.204Z,28.38
2022-11-26T09:44:42.736Z,26.10
2022-11-26T09:47:13.699Z,29.45
2022-11-26T09:49:48.354Z,27.10
2022-11-26T09:52:19.721Z,20.65
2022-11-26T09:54:48.747Z,26.00
2022-11-26T09:57:21.427Z,27.50
2022-11-26T09:59:51.482Z,30.55
2022-11-26T10:02:19.952Z,25.38
2022-11-26T10:04:49.735Z,24.40
2022-11-26T10:07:25.823Z,28.90
2022-11-26T10:09:57.604Z,28.30
2022-11-26T10:12:38.262Z,31.50
2022-11-26T10:15:20.012Z,24.88
2022-11-26T10:17:52.757Z,22.63
2022-11-26T10:20:47.501Z,26.70
2022-11-26T10:23:18.888Z,22.65
2022-11-26T10:25:48.961Z,26.75
2022-11-26T10:28:21.039Z,27.33
2022-11-26T10:30:53.600Z,27.75
2022-11-26T10:33:22.276Z,25.77
2022-11-26T10:35:51.972Z,26.13
2022-11-26T10:38:20.270Z,34.55
2022-11-26T10:40:48.564Z,27.90
2022-11-26T10:43:20.376Z,24.00
2022-11-26T10:45:49.808Z,29.77
2022-11-26T10:48:26.278Z,24.87
2022-11-26T10:51:12.326Z,23.90
2022-11-26T10:53:51.271Z,25.63
2022-11-26T10:56:20.535Z,27.27
2022-11-26T10:58:49.768Z,19.98
2022-11-26T11:01:18.353Z,20.20
2022-11-26T11:06:40.632Z,18.67
2022-11-26T11:09:24.801Z,22.17
2022-11-26T11:12:09.938Z,21.85
2022-11-26T11:14:43.017Z,20.10
2022-11-26T11:17:20.409Z,23.52
2022-11-26T11:19:48.656Z,23.13
2022-11-26T11:22:20.303Z,26.50
2022-11-26T11:24:50.151Z,22.30
2022-11-26T11:27:25.032Z,19.52
2022-11-26T11:29:53.406Z,23.80
2022-11-26T11:32:38.174Z,23.17
2022-11-26T11:35:25.744Z,20.27
2022-11-26T11:37:54.818Z,23.83
2022-11-26T11:40:27.585Z,26.25
2022-11-26T11:42:57.377Z,19.75
2022-11-26T11:45:30.108Z,19.88
2022-11-26T11:48:00.002Z,23.65
2022-11-26T11:50:32.049Z,17.20
2022-11-26T11:53:24.127Z,21.83
2022-11-26T11:56:02.721Z,24.38
2022-11-26T11:58:46.291Z,28.35
2022-11-26T12:01:22.060Z,25.33
2022-11-26T12:03:55.748Z,25.08
2022-11-26T12:06:31.990Z,26.15
2022-11-26T12:09:04.483Z,21.90
2022-11-26T12:11:39.786Z,20.23
2022-11-26T12:14:10.264Z,21.48
2022-11-26T12:16:41.594Z,19.85
2022-11-26T12:19:13.291Z,25.97
2022-11-26T12:21:46.320Z,23.65
2022-11-26T12:24:17.100Z,29.40
2022-11-26T12:26:49.700Z,19.88
2022-11-26T12:29:21.720Z,27.67
2022-11-26T12:31:51.634Z,20.77
2022-11-26T12:34:23.795Z,27.20
2022-11-26T12:36:54.099Z,23.75
2022-11-26T12:39:30.029Z,20.55
2022-11-26T12:42:02.221Z,20.67
2022-11-26T12:44:33.115Z,21.52
2022-11-26T12:47:08.927Z,18.93
2022-11-26T12:49:43.838Z,19.77
2022-11-26T12:52:19.820Z,27.98
2022-11-26T12:54:50.359Z,22.10
2022-11-26T12:57:24.260Z,24.83
2022-11-26T12:59:56.714Z,28.65
2022-11-26T13:02:26.318Z,24.15
2022-11-26T13:04:54.953Z,17.27
2022-11-26T13:07:31.431Z,22.30
2022-11-26T13:10:05.483Z,21.83
2022-11-26T13:12:40.199Z,21.63
2022-11-26T13:15:13.164Z,20.60
2022-11-26T13:17:43.487Z,21.25
2022-11-26T13:20:17.871Z,16.90
2022-11-26T13:22:54.456Z,22.03
2022-11-26T13:25:32.113Z,18.05
2022-11-26T13:28:05.208Z,20.10
2022-11-26T13:30:39.692Z,21.83
2022-11-26T13:33:17.051Z,22.83
2022-11-26T13:35:50.967Z,23.95
2022-11-26T13:38:21.796Z,24.90
2022-11-26T13:41:08.922Z,22.13
2022-11-26T13:43:56.069Z,24.02
2022-11-26T13:46:25.625Z,26.13
2022-11-26T13:48:57.417Z,22.40
2022-11-26T13:51:28.782Z,20.25
2022-11-26T13:53:58.759Z,19.23
2022-11-26T13:56:32.073Z,20.67
2022-11-26T13:59:03.201Z,21.17
2022-11-26T14:01:33.109Z,23.15
2022-11-26T14:04:01.439Z,24.95
2022-11-26T14:06:29.669Z,21.02
2022-11-26T14:08:58.467Z,16.58
2022-11-26T14:11:45.552Z,20.90
2022-11-26T14:14:38.153Z,16.20
2022-11-26T14:17:18.355Z,19.13
2022-11-26T14:19:59.643Z,17.20
2022-11-26T14:22:29.026Z,17.67
2022-11-26T14:24:59.273Z,18.48
2022-11-26T14:27:29.674Z,23.73
2022-11-26T14:30:00.442Z,23.80
2022-11-26T14:32:31.716Z,20.50
2022-11-26T14:35:00.074Z,24.00
2022-11-26T14:37:29.206Z,15.32
2022-11-26T14:40:01.194Z,19.42
2022-11-26T14:42:29.951Z,12.75
2022-11-26T14:45:05.375Z,14.82
2022-11-26T14:47:35.396Z,17.95
2022-11-26T14:50:06.428Z,16.80
2022-11-26T14:52:36.169Z,14.50
2022-11-26T14:55:07.579Z,16.30
2022-11-26T14:57:40.631Z,16.20
2022-11-26T15:00:21.201Z,16.38
2022-11-26T15:02:50.941Z,15.23
2022-11-26T15:05:20.623Z,17.33
2022-11-26T15:07:58.106Z,14.70
2022-11-26T15:10:26.698Z,16.95
2022-11-26T15:12:55.170Z,15.90
2022-11-26T15:15:24.787Z,15.80
2022-11-26T15:17:56.567Z,17.77
2022-11-26T15:20:25.423Z,16.17
2022-11-26T15:22:54.280Z,18.48
2022-11-26T15:25:23.548Z,21.00
2022-11-26T15:27:56.025Z,13.95
2022-11-26T15:30:25.728Z,16.15
2022-11-26T15:33:03.095Z,18.77
2022-11-26T15:35:33.189Z,17.10
2022-11-26T15:38:01.499Z,16.13
2022-11-26T15:40:32.481Z,18.25
2022-11-26T15:43:02.400Z,18.70
2022-11-26T15:45:35.023Z,20.83
2022-11-26T15:48:05.326Z,18.25
2022-11-26T15:50:34.405Z,14.30
2022-11-26T15:53:03.711Z,16.63
2022-11-26T15:55:33.901Z,18.33
2022-11-26T15:58:04.556Z,11.88
2022-11-26T16:00:34.235Z,15.82
2022-11-26T16:03:02.467Z,15.77
2022-11-26T16:05:35.080Z,14.60
2022-11-26T16:08:04.362Z,21.50
2022-11-26T16:10:35.642Z,17.50
2022-11-26T16:13:08.911Z,21.70
2022-11-26T16:15:40.161Z,15.63
2022-11-26T16:18:15.823Z,14.50
2022-11-26T16:20:45.594Z,20.40
2022-11-26T16:23:21.083Z,15.75
2022-11-26T16:26:04.231Z,18.47
2022-11-26T16:28:32.505Z,17.55
2022-11-26T16:31:00.861Z,14.18
2022-11-26T16:33:29.291Z,18.60
2022-11-26T16:35:58.933Z,11.48
2022-11-26T16:38:27.936Z,17.08
2022-11-26T16:40:56.437Z,16.13
2022-11-26T16:43:25.547Z,15.90
2022-11-26T16:45:55.616Z,14.55
2022-11-26T16:48:25.580Z,17.85
2022-11-26T16:50:53.968Z,13.52
2022-11-26T16:53:23.801Z,15.20
2022-11-26T16:55:52.612Z,14.25
2022-11-26T16:58:25.986Z,15.50
2022-11-26T17:00:54.328Z,16.88
2022-11-26T17:03:23.431Z,15.18
2022-11-26T17:05:53.196Z,17.47
2022-11-26T17:08:21.640Z,17.27
2022-11-26T17:10:51.882Z,15.60
2022-11-26T17:13:20.636Z,13.77
2022-11-26T17:15:49.256Z,20.27
2022-11-26T17:18:20.100Z,17.35
2022-11-26T17:20:48.388Z,16.35
2022-11-26T17:23:16.724Z,19.27
2022-11-26T17:25:45.619Z,16.80
2022-11-26T17:28:16.309Z,19.35
2022-11-26T17:30:45.133Z,20.08
2022-11-26T17:33:13.588Z,22.75
2022-11-26T17:35:41.887Z,22.40
2022-11-26T17:38:28.001Z,21.80
2022-11-26T17:40:56.218Z,16.85
2022-11-26T17:43:25.812Z,14.93
2022-11-26T17:45:54.118Z,19.50
2022-11-26T17:48:26.576Z,13.77
2022-11-26T17:50:55.046Z,18.73
2022-11-26T17:53:23.318Z,20.65
2022-11-26T17:55:51.549Z,16.20
2022-11-26T17:58:19.849Z,12.07
2022-11-26T18:00:49.483Z,16.87
2022-11-26T18:03:17.729Z,14.93
2022-11-26T18:05:45.955Z,16.27
2022-11-26T18:08:14.316Z,12.47
2022-11-26T18:10:42.742Z,22.13
2022-11-26T18:13:11.006Z,15.02
2022-11-26T18:15:39.298Z,13.27
2022-11-26T18:18:09.067Z,19.05
2022-11-26T18:20:37.343Z,17.23
2022-11-26T18:23:05.859Z,12.15
2022-11-26T18:25:35.430Z,14.38
2022-11-26T18:28:03.674Z,10.63
2022-11-26T18:30:31.982Z,19.13
2022-11-26T18:33:00.278Z,15.98
2022-11-26T18:35:29.872Z,16.90
2022-11-26T18:37:58.108Z,12.70
2022-11-26T18:40:26.370Z,17.35
2022-11-26T18:42:54.647Z,18.42
2022-11-26T18:45:22.899Z,17.38
2022-11-26T18:47:51.136Z,15.13
2022-11-26T18:50:19.532Z,15.40
2022-11-26T18:52:49.205Z,21.55
2022-11-26T18:55:17.505Z,15.82
2022-11-26T18:57:45.751Z,14.10
2022-11-26T19:00:15.668Z,15.63
2022-11-26T19:02:43.989Z,15.38
2022-11-26T19:05:12.459Z,17.15
2022-11-26T19:07:40.844Z,20.42
2022-11-26T19:10:11.354Z,21.30
2022-11-26T19:12:39.607Z,16.17
2022-11-26T19:15:08.365Z,18.48
2022-11-26T19:17:36.662Z,20.27
2022-11-26T19:20:05.250Z,15.32
2022-11-26T19:22:33.495Z,14.10
2022-11-26T19:25:01.711Z,14.93
2022-11-26T19:27:31.320Z,15.50
2022-11-26T19:29:59.567Z,16.50
2022-11-26T19:32:28.052Z,13.45
2022-11-26T19:34:58.162Z,19.75
2022-11-26T19:37:29.579Z,20.55
2022-11-26T19:39:57.850Z,16.90
2022-11-26T19:42:26.177Z,17.60
2022-11-26T19:44:55.860Z,19.88
2022-11-26T19:47:24.114Z,12.48
2022-11-26T19:49:52.384Z,18.25
2022-11-26T19:52:20.665Z,20.17
2022-11-26T19:54:48.892Z,15.20
2022-11-26T19:57:17.150Z,13.50
2022-11-26T19:59:45.427Z,16.98
2022-11-26T20:02:15.584Z,15.02
2022-11-26T20:04:43.909Z,16.97
2022-11-26T20:07:12.421Z,15.55
2022-11-26T20:09:41.022Z,15.52
2022-11-26T20:12:09.756Z,14.68
2022-11-26T20:14:38.010Z,14.40
2022-11-26T20:17:06.401Z,18.75
2022-11-26T20:19:37.343Z,16.45
2022-11-26T20:22:05.730Z,15.00
2022-11-26T20:24:33.989Z,15.10
2022-11-26T20:27:02.218Z,21.98
2022-11-26T20:29:30.515Z,24.75
2022-11-26T20:31:58.834Z,12.07
2022-11-26T20:34:27.822Z,16.02
2022-11-26T20:36:57.549Z,19.52
2022-11-26T20:39:25.883Z,14.48
2022-11-26T20:41:54.390Z,16.08
2022-11-26T20:44:23.102Z,23.37
2022-11-26T20:46:51.423Z,25.33
2022-11-26T20:49:19.726Z,19.40
2022-11-26T20:51:48.040Z,22.02
2022-11-26T20:54:17.669Z,22.65
2022-11-26T20:56:46.024Z,23.30
2022-11-26T20:59:14.284Z,15.43
2022-11-26T21:01:42.734Z,17.03
2022-11-26T21:04:11.131Z,18.02
2022-11-26T21:06:39.377Z,15.07
2022-11-26T21:09:07.833Z,13.70
2022-11-26T21:11:37.439Z,20.02
2022-11-26T21:14:08.488Z,16.27
2022-11-26T21:16:38.998Z,16.60
2022-11-26T21:19:07.305Z,20.73
2022-11-26T21:21:35.547Z,20.73
2022-11-26T21:24:04.725Z,18.88
2022-11-26T21:26:32.991Z,17.95
2022-11-26T21:29:03.409Z,15.90
2022-11-26T21:31:32.393Z,14.27
2022-11-26T21:34:02.022Z,17.33
2022-11-26T21:36:30.939Z,20.05
2022-11-26T21:38:59.231Z,17.58
2022-11-26T21:41:27.887Z,16.27
2022-11-26T21:43:56.174Z,15.88
2022-11-26T21:46:27.019Z,17.07
2022-11-26T21:48:55.739Z,17.03
2022-11-26T21:51:24.568Z,17.52
2022-11-26T21:53:52.885Z,15.60
2022-11-26T21:56:21.928Z,19.20
2022-11-26T21:58:50.389Z,13.52
2022-11-26T22:01:20.118Z,15.25
2022-11-26T22:03:50.865Z,15.82
2022-11-26T22:06:20.055Z,12.50
2022-11-26T22:08:48.673Z,18.30
2022-11-26T22:11:18.148Z,19.05
2022-11-26T22:13:46.688Z,17.33
2022-11-26T22:16:15.874Z,14.77
2022-11-26T22:18:45.127Z,17.60
2022-11-26T22:21:15.594Z,13.45
2022-11-26T22:23:44.104Z,12.75
2022-11-26T22:26:12.748Z,16.98
2022-11-26T22:28:41.299Z,14.70
2022-11-26T22:31:10.793Z,21.02
2022-11-26T22:33:39.303Z,26.30
2022-11-26T22:36:07.944Z,23.65
2022-11-26T22:38:39.324Z,20.77
2022-11-26T22:41:08.704Z,20.45
2022-11-26T22:43:37.036Z,19.13
2022-11-26T22:46:05.970Z,17.48
2022-11-26T22:48:34.624Z,20.45
2022-11-26T22:51:02.956Z,16.77
2022-11-26T22:53:33.229Z,18.42
2022-11-26T22:56:03.882Z,14.05
2022-11-26T22:58:32.802Z,17.70
2022-11-26T23:01:04.132Z,15.67
2022-11-26T23:03:33.508Z,12.35
2022-11-26T23:06:04.064Z,13.45
2022-11-26T23:08:32.772Z,13.80
2022-11-26T23:11:01.019Z,12.13
2022-11-26T23:13:30.655Z,14.20
2022-11-26T23:15:59.036Z,17.30
2022-11-26T23:18:27.312Z,13.15
2022-11-26T23:21:03.341Z,15.18
2022-11-26T23:23:31.856Z,13.95
2022-11-26T23:26:00.431Z,17.83
2022-11-26T23:28:28.661Z,11.95
2022-11-26T23:31:02.730Z,17.90
2022-11-26T23:33:31.402Z,15.20
2022-11-26T23:35:59.707Z,14.75
2022-11-26T23:38:27.917Z,14.85
2022-11-26T23:40:56.407Z,10.77
2022-11-26T23:43:25.023Z,19.70
2022-11-26T23:45:53.361Z,14.30
2022-11-26T23:48:23.014Z,14.07
2022-11-26T23:50:51.243Z,11.93
2022-11-26T23:53:19.460Z,14.20
2022-11-26T23:55:48.833Z,11.75
2022-11-26T23:58:17.323Z,14.48
